Time;durP1;ratioP1;P1;durP2;ratioP2;P2;SDS_P1;SDS_P2;PMS_P1;PMS_P2;Temp;Humidity;BMP_temperature;BMP_pressure;BME280_temperature;BME280_humidity;BME280_pressure;Samples;Min_cycle;Max_cycle;Signal;HPM_P1;HPM_P2
2023/12/15 00:00:07;;;;;;;;;;;;;;;-0.35;96.85;101694.86;105043;1291;71360;-59
2023/12/15 00:02:53;;;;;;;;;;;;;;;-0.33;97.00;101704.60;106452;1286;59385;-59
2023/12/15 00:05:39;;;;;;;;;;;;;;;-0.32;96.90;101706.84;106426;1285;59951;-59
2023/12/15 00:08:25;;;;;;;;;;;;;;;-0.33;97.08;101718.83;106408;1285;72461;-59
2023/12/15 00:11:11;;;;;;;;;;;;;;;-0.34;97.06;101723.19;106476;1285;67253;-59
2023/12/15 00:13:57;;;;;;;;;;;;;;;-0.33;96.96;101729.83;105355;1286;71717;-58
2023/12/15 00:16:43;;;;;;;;;;;;;;;-0.32;96.91;101734.30;105105;1287;61135;-58
2023/12/15 00:19:29;;;;;;;;;;;;;;;-0.30;97.02;101732.52;105033;1286;62413;-58
2023/12/15 00:22:16;;;;;;;;;;;;;;;-0.28;97.20;101738.21;105078;1288;73202;-58
2023/12/15 00:25:02;;;;;;;;;;;;;;;-0.25;98.11;101743.58;105128;1285;73431;-58
2023/12/15 00:27:48;;;;;;;;;;;;;;;-0.23;97.52;101747.23;104901;1290;71228;-58
2023/12/15 00:30:35;;;;;;;;;;;;;;;-0.22;97.26;101750.52;105076;1286;61462;-58
2023/12/15 00:33:21;;;;;;;;;;;;;;;-0.22;97.04;101751.38;105072;1291;61109;-57
2023/12/15 00:36:08;;;;;;;;;;;;;;;-0.21;97.05;101754.10;105113;1287;73279;-59
2023/12/15 00:38:54;;;;;;;;;;;;;;;-0.20;97.04;101759.92;105022;1287;68170;-59
2023/12/15 00:41:40;;;;;;;;;;;;;;;-0.18;97.11;101761.86;105060;1286;70272;-58
2023/12/15 00:44:26;;;;;;;;;;;;;;;-0.18;97.31;101775.91;104992;1291;61769;-58
2023/12/15 00:47:14;;;;;;;;;;;;;;;-0.20;97.25;101778.23;105054;1287;61144;-59
2023/12/15 00:50:00;;;;;;;;;;;;;;;-0.20;97.12;101780.43;105089;1290;73644;-58
2023/12/15 00:52:47;;;;;;;;;;;;;;;-0.20;97.07;101783.32;104980;1289;67317;-59
2023/12/15 00:55:33;;;;;;;;;;;;;;;-0.19;97.06;101781.32;105017;1286;72106;-58
2023/12/15 00:58:19;;;;;;;;;;;;;;;-0.19;97.28;101782.00;105053;1292;60196;-58
2023/12/15 01:01:06;;;;;;;;;;;;;;;-0.17;97.24;101787.34;105043;1286;61241;-58
2023/12/15 01:03:52;;;;;;;;;;;;;;;-0.16;97.20;101786.36;105021;1290;75954;-57
2023/12/15 01:06:38;;;;;;;;;;;;;;;-0.15;97.24;101792.98;105092;1286;67595;-58
2023/12/15 01:09:25;;;;;;;;;;;;;;;-0.12;97.22;101799.58;105013;1291;74062;-59
2023/12/15 01:12:11;;;;;;;;;;;;;;;-0.11;97.39;101797.28;104979;1286;61258;-58
2023/12/15 01:14:57;;;;;;;;;;;;;;;-0.12;97.39;101800.64;105026;1287;59882;-58
2023/12/15 01:17:43;;;;;;;;;;;;;;;-0.11;97.34;101810.85;105051;1291;73360;-58
2023/12/15 01:20:30;;;;;;;;;;;;;;;-0.12;97.18;101811.45;105076;1286;67147;-58
2023/12/15 01:23:16;;;;;;;;;;;;;;;-0.12;97.58;101807.90;105032;1290;77440;-58
2023/12/15 01:26:02;;;;;;;;;;;;;;;-0.09;97.33;101808.39;105097;1286;61524;-58
2023/12/15 01:28:48;;;;;;;;;;;;;;;-0.08;98.06;101812.02;105103;1289;61631;-57
2023/12/15 01:31:34;;;;;;;;;;;;;;;-0.06;97.68;101809.23;105110;1291;73980;-58
2023/12/15 01:34:21;;;;;;;;;;;;;;;-0.02;97.65;101808.73;105032;1286;70271;-58
2023/12/15 01:37:07;;;;;;;;;;;;;;;0.01;97.57;101801.55;105016;1285;73570;-57
2023/12/15 01:39:54;;;;;;;;;;;;;;;0.04;97.59;101808.97;105087;1286;61273;-58
2023/12/15 01:42:40;;;;;;;;;;;;;;;0.04;97.34;101807.59;105030;1286;61259;-56
2023/12/15 01:45:26;;;;;;;;;;;;;;;0.03;97.24;101818.55;105015;1286;75017;-58
2023/12/15 01:48:12;;;;;;;;;;;;;;;0.03;97.24;101824.80;105023;1286;68203;-59
2023/12/15 01:50:59;;;;;;;;;;;;;;;0.01;97.14;101825.09;105050;1291;72412;-57
2023/12/15 01:53:45;;;;;;;;;;;;;;;0.01;97.18;101826.09;105029;1286;61661;-58
2023/12/15 01:56:31;;;;;;;;;;;;;;;0.03;97.24;101826.36;106497;1285;58944;-59
2023/12/15 01:59:17;;;;;;;;;;;;;;;0.03;97.24;101821.80;106464;1285;74542;-59
2023/12/15 02:02:03;;;;;;;;;;;;;;;0.06;97.27;101818.04;106315;1288;68523;-59
2023/12/15 02:04:49;;;;;;;;;;;;;;;0.09;97.28;101819.34;105054;1286;73129;-59
2023/12/15 02:07:36;;;;;;;;;;;;;;;0.10;97.22;101821.77;105095;1286;61189;-59
2023/12/15 02:10:22;;;;;;;;;;;;;;;0.09;97.11;101826.14;104926;1286;63842;-59
2023/12/15 02:13:08;;;;;;;;;;;;;;;0.07;96.96;101831.29;105066;1286;76045;-59
2023/12/15 02:15:54;;;;;;;;;;;;;;;0.04;96.97;101834.84;105071;1286;67277;-59
2023/12/15 02:18:41;;;;;;;;;;;;;;;0.03;97.07;101838.02;105040;1286;74006;-59
2023/12/15 02:21:27;;;;;;;;;;;;;;;0.02;97.20;101840.58;105109;1289;61214;-58
2023/12/15 02:24:13;;;;;;;;;;;;;;;0.03;97.56;101839.59;105059;1286;61260;-59
2023/12/15 02:26:59;;;;;;;;;;;;;;;0.04;97.79;101850.48;105092;1286;72616;-59
2023/12/15 02:29:46;;;;;;;;;;;;;;;0.05;97.61;101854.75;105023;1286;70094;-59
2023/12/15 02:32:32;;;;;;;;;;;;;;;0.02;97.31;101860.20;105103;1286;71795;-58
2023/12/15 02:35:18;;;;;;;;;;;;;;;0.02;97.43;101857.16;105060;1285;62067;-58
2023/12/15 02:38:09;;;;;;;;;;;;;;;0.03;97.53;101862.30;105055;1286;60630;-59
2023/12/15 02:40:55;;;;;;;;;;;;;;;0.02;97.54;101864.80;106455;1285;73275;-59
2023/12/15 02:43:41;;;;;;;;;;;;;;;0.04;97.63;101866.22;106499;1285;67598;-60
2023/12/15 02:46:27;;;;;;;;;;;;;;;0.05;97.57;101862.89;106444;1285;71968;-60
2023/12/15 02:49:13;;;;;;;;;;;;;;;0.06;97.77;101870.92;106374;1290;59356;-59
2023/12/15 02:51:59;;;;;;;;;;;;;;;0.06;97.70;101871.92;106485;1285;59855;-60
2023/12/15 02:54:45;;;;;;;;;;;;;;;0.06;98.35;101871.26;106444;1286;73346;-60
2023/12/15 02:57:31;;;;;;;;;;;;;;;0.09;98.20;101879.17;106487;1286;67352;-60
2023/12/15 03:00:17;;;;;;;;;;;;;;;0.11;98.01;101886.59;106477;1286;73046;-59
2023/12/15 03:03:03;;;;;;;;;;;;;;;0.13;97.92;101889.38;106463;1285;59554;-60
2023/12/15 03:05:49;;;;;;;;;;;;;;;0.16;98.56;101893.93;106433;1289;59425;-59
2023/12/15 03:08:35;;;;;;;;;;;;;;;0.19;98.36;101894.23;105745;1288;73400;-59
2023/12/15 03:11:22;;;;;;;;;;;;;;;0.20;98.26;101896.51;105087;1286;67192;-58
2023/12/15 03:14:08;;;;;;;;;;;;;;;0.22;98.12;101897.95;105109;1286;76223;-59
2023/12/15 03:16:54;;;;;;;;;;;;;;;0.24;97.98;101898.57;105054;1285;61106;-59
2023/12/15 03:19:40;;;;;;;;;;;;;;;0.25;97.98;101898.92;105130;1285;64592;-59
2023/12/15 03:22:27;;;;;;;;;;;;;;;0.26;98.45;101906.26;105105;1289;73394;-59
2023/12/15 03:25:13;;;;;;;;;;;;;;;0.25;98.04;101909.30;105064;1285;67299;-59
2023/12/15 03:28:00;;;;;;;;;;;;;;;0.25;97.91;101911.50;105082;1285;72130;-58
2023/12/15 03:30:46;;;;;;;;;;;;;;;0.24;97.88;101911.95;105121;1286;61122;-58
2023/12/15 03:33:35;;;;;;;;;;;;;;;0.23;97.87;101913.10;105152;1285;61260;-59
2023/12/15 03:36:21;;;;;;;;;;;;;;;0.22;98.01;101919.46;106489;1285;73242;-59
2023/12/15 03:39:09;;;;;;;;;;;;;;;0.22;98.38;101924.74;106457;1286;69335;-60
2023/12/15 03:41:55;;;;;;;;;;;;;;;0.21;98.68;101929.95;106442;1286;72027;-60
2023/12/15 03:44:41;;;;;;;;;;;;;;;0.22;98.51;101930.01;106050;1286;59256;-59
2023/12/15 03:47:27;;;;;;;;;;;;;;;0.24;98.21;101930.10;105083;1290;61356;-59
2023/12/15 03:50:13;;;;;;;;;;;;;;;0.25;98.21;101933.73;105114;1286;73069;-59
2023/12/15 03:52:59;;;;;;;;;;;;;;;0.26;98.14;101933.90;105086;1291;70062;-59
2023/12/15 03:55:46;;;;;;;;;;;;;;;0.26;98.24;101941.55;105109;1285;73236;-58
2023/12/15 03:58:32;;;;;;;;;;;;;;;0.27;98.32;101942.42;105091;1289;61180;-59
2023/12/15 04:01:18;;;;;;;;;;;;;;;0.28;98.29;101947.42;105158;1285;61841;-59
2023/12/15 04:04:05;;;;;;;;;;;;;;;0.30;98.53;101949.54;105107;1289;75946;-57
2023/12/15 04:06:51;;;;;;;;;;;;;;;0.31;98.82;101950.09;105131;1285;67289;-59
2023/12/15 04:09:37;;;;;;;;;;;;;;;0.31;99.15;101954.00;105175;1285;71308;-59
2023/12/15 04:12:23;;;;;;;;;;;;;;;0.31;99.73;101962.99;105058;1288;61155;-58
2023/12/15 04:15:10;;;;;;;;;;;;;;;0.31;99.26;101965.69;105126;1286;61144;-59
2023/12/15 04:17:56;;;;;;;;;;;;;;;0.32;99.42;101971.16;105093;1285;73263;-58
2023/12/15 04:20:42;;;;;;;;;;;;;;;0.32;99.40;101975.94;105187;1286;71839;-57
2023/12/15 04:23:29;;;;;;;;;;;;;;;0.32;98.93;101978.83;105121;1288;72060;-58
2023/12/15 04:26:15;;;;;;;;;;;;;;;0.33;99.22;101983.45;105107;1286;61295;-58
2023/12/15 04:29:01;;;;;;;;;;;;;;;0.34;99.09;101991.80;105109;1286;59956;-58
2023/12/15 04:31:48;;;;;;;;;;;;;;;0.35;99.60;101995.03;105132;1291;73287;-59
2023/12/15 04:34:34;;;;;;;;;;;;;;;0.33;99.42;101999.90;104994;1285;71405;-59
2023/12/15 04:37:21;;;;;;;;;;;;;;;0.35;98.96;102003.00;105105;1288;73708;-58
2023/12/15 04:40:07;;;;;;;;;;;;;;;0.34;98.85;102001.98;105094;1286;61170;-58
2023/12/15 04:42:53;;;;;;;;;;;;;;;0.35;98.64;102004.88;105162;1286;63392;-59
2023/12/15 04:45:40;;;;;;;;;;;;;;;0.34;98.86;102006.02;105062;1288;73460;-59
2023/12/15 04:48:26;;;;;;;;;;;;;;;0.34;98.91;102012.83;105135;1286;67171;-58
2023/12/15 04:51:13;;;;;;;;;;;;;;;0.35;98.66;102009.98;105110;1287;72412;-58
2023/12/15 04:53:59;;;;;;;;;;;;;;;0.35;98.59;102011.52;105110;1286;61237;-59
2023/12/15 04:56:46;;;;;;;;;;;;;;;0.36;98.63;102009.84;105167;1286;61070;-59
2023/12/15 04:59:39;;;;;;;;;;;;;;;0.36;98.63;102013.57;105159;1286;73342;-59
2023/12/15 05:02:26;;;;;;;;;;;;;;;0.36;98.62;102018.19;105123;1285;67162;-59
2023/12/15 05:05:12;;;;;;;;;;;;;;;0.34;98.59;102019.61;105150;1285;71317;-59
2023/12/15 05:07:58;;;;;;;;;;;;;;;0.35;98.41;102026.79;105152;1288;61872;-59
2023/12/15 05:10:44;;;;;;;;;;;;;;;0.37;98.49;102028.88;105032;1288;76113;-59
2023/12/15 05:13:31;;;;;;;;;;;;;;;0.37;98.46;102033.83;105088;1291;73901;-57
2023/12/15 05:16:17;;;;;;;;;;;;;;;0.38;98.39;102036.90;106447;1285;68501;-60
2023/12/15 05:19:03;;;;;;;;;;;;;;;0.38;98.47;102040.12;106459;1287;71146;-59
2023/12/15 05:21:49;;;;;;;;;;;;;;;0.38;98.36;102042.36;106456;1285;58358;-60
2023/12/15 05:24:35;;;;;;;;;;;;;;;0.39;98.36;102042.56;106479;1285;60431;-60
2023/12/15 05:27:21;;;;;;;;;;;;;;;0.40;99.03;102048.70;106460;1285;74084;-59
2023/12/15 05:30:07;;;;;;;;;;;;;;;0.39;98.97;102047.34;106521;1285;66934;-60
2023/12/15 05:32:53;;;;;;;;;;;;;;;0.39;98.94;102047.49;106485;1285;72328;-60
2023/12/15 05:35:39;;;;;;;;;;;;;;;0.39;99.33;102054.45;106462;1286;59403;-60
2023/12/15 05:38:25;;;;;;;;;;;;;;;0.38;98.84;102056.78;106544;1285;59686;-60
2023/12/15 05:41:11;;;;;;;;;;;;;;;0.36;98.81;102059.73;106489;1285;75064;-60
2023/12/15 05:43:57;;;;;;;;;;;;;;;0.36;98.86;102063.93;106518;1285;67404;-60
2023/12/15 05:46:44;;;;;;;;;;;;;;;0.34;98.69;102059.80;106455;1287;71158;-60
2023/12/15 05:49:30;;;;;;;;;;;;;;;0.32;98.70;102060.56;106502;1285;58877;-60
2023/12/15 05:52:16;;;;;;;;;;;;;;;0.31;98.81;102065.60;106530;1285;60205;-60
2023/12/15 05:55:02;;;;;;;;;;;;;;;0.28;98.80;102067.64;106498;1285;74613;-60
2023/12/15 05:57:48;;;;;;;;;;;;;;;0.25;98.63;102065.98;105237;1286;67517;-59
2023/12/15 06:00:34;;;;;;;;;;;;;;;0.24;98.42;102064.92;105051;1285;71267;-59
2023/12/15 06:03:21;;;;;;;;;;;;;;;0.23;98.40;102063.52;105122;1285;61231;-59
2023/12/15 06:06:11;;;;;;;;;;;;;;;0.24;98.42;102069.83;105081;1285;61401;-60
2023/12/15 06:08:57;;;;;;;;;;;;;;;0.24;98.52;102076.77;105142;1286;75536;-59
2023/12/15 06:11:43;;;;;;;;;;;;;;;0.23;98.76;102080.29;105173;1288;69156;-59
2023/12/15 06:14:30;;;;;;;;;;;;;;;0.22;98.62;102084.80;105134;1286;72144;-59
2023/12/15 06:17:16;;;;;;;;;;;;;;;0.20;98.53;102086.09;105116;1286;60011;-62
2023/12/15 06:20:03;;;;;;;;;;;;;;;0.20;98.59;102085.42;105202;1289;61138;-62
2023/12/15 06:22:51;;;;;;;;;;;;;;;0.21;98.60;102089.36;105117;1285;75210;-62
2023/12/15 06:25:37;;;;;;;;;;;;;;;0.22;98.48;102094.00;105106;1285;67224;-62
2023/12/15 06:28:23;;;;;;;;;;;;;;;0.22;98.50;102101.13;105070;1286;75294;-61
2023/12/15 06:31:09;;;;;;;;;;;;;;;0.20;98.63;102105.56;105146;1285;61199;-61
2023/12/15 06:33:56;;;;;;;;;;;;;;;0.19;98.59;102107.55;105096;1285;61039;-61
2023/12/15 06:36:42;;;;;;;;;;;;;;;0.19;98.70;102110.61;105074;1289;73160;-61
2023/12/15 06:39:28;;;;;;;;;;;;;;;0.20;98.51;102118.96;105062;1285;68339;-61
2023/12/15 06:42:14;;;;;;;;;;;;;;;0.20;98.70;102120.84;105084;1285;71973;-61
2023/12/15 06:45:07;;;;;;;;;;;;;;;0.21;98.70;102125.13;105030;1288;60515;-61
2023/12/15 06:47:53;;;;;;;;;;;;;;;0.21;98.59;102126.64;105072;1285;61298;-59
2023/12/15 06:50:40;;;;;;;;;;;;;;;0.21;98.70;102129.20;105072;1285;73277;-58
2023/12/15 06:53:26;;;;;;;;;;;;;;;0.23;98.64;102130.30;105050;1285;67151;-59
2023/12/15 06:56:12;;;;;;;;;;;;;;;0.23;98.67;102134.74;105101;1285;71164;-59
2023/12/15 06:58:58;;;;;;;;;;;;;;;0.25;98.68;102136.37;105008;1288;61125;-59
2023/12/15 07:01:45;;;;;;;;;;;;;;;0.25;98.57;102133.29;105021;1289;61167;-59
2023/12/15 07:04:31;;;;;;;;;;;;;;;0.26;98.78;102138.77;105043;1289;75935;-59
2023/12/15 07:07:17;;;;;;;;;;;;;;;0.26;98.69;102136.59;104843;1286;68080;-59
2023/12/15 07:10:04;;;;;;;;;;;;;;;0.28;98.69;102133.78;105023;1285;71239;-59
2023/12/15 07:12:50;;;;;;;;;;;;;;;0.30;98.69;102135.60;106403;1286;59291;-59
2023/12/15 07:15:36;;;;;;;;;;;;;;;0.32;98.86;102138.04;106402;1287;59061;-58
2023/12/15 07:18:22;;;;;;;;;;;;;;;0.32;98.63;102132.99;106414;1285;73363;-60
2023/12/15 07:21:08;;;;;;;;;;;;;;;0.34;98.60;102140.36;106450;1285;67260;-60
2023/12/15 07:23:54;;;;;;;;;;;;;;;0.37;98.67;102142.36;106462;1285;72359;-60
2023/12/15 07:26:40;;;;;;;;;;;;;;;0.40;98.60;102149.98;106126;1285;61280;-59
2023/12/15 07:29:26;;;;;;;;;;;;;;;0.43;98.65;102155.06;105035;1290;61244;-59
2023/12/15 07:32:12;;;;;;;;;;;;;;;0.45;98.82;102156.19;105090;1285;77443;-58
2023/12/15 07:34:58;;;;;;;;;;;;;;;0.48;98.71;102161.77;104998;1285;70035;-59
2023/12/15 07:37:45;;;;;;;;;;;;;;;0.48;99.16;102154.11;105045;1288;71223;-59
2023/12/15 07:40:31;;;;;;;;;;;;;;;0.49;99.43;102159.97;105051;1286;61250;-58
2023/12/15 07:43:17;;;;;;;;;;;;;;;0.52;99.22;102157.71;105002;1286;61128;-58
2023/12/15 07:46:04;;;;;;;;;;;;;;;0.54;99.59;102152.04;105032;1285;77374;-59
2023/12/15 07:48:50;;;;;;;;;;;;;;;0.55;99.59;102162.42;105063;1291;68173;-59
2023/12/15 07:51:36;;;;;;;;;;;;;;;0.58;99.13;102162.57;105101;1285;71248;-59
2023/12/15 07:54:23;;;;;;;;;;;;;;;0.61;99.44;102171.40;105034;1285;61270;-58
2023/12/15 07:57:09;;;;;;;;;;;;;;;0.66;99.11;102173.66;105040;1285;60031;-57
2023/12/15 07:59:55;;;;;;;;;;;;;;;0.71;98.97;102173.75;104833;1287;73652;-56
2023/12/15 08:02:43;;;;;;;;;;;;;;;0.77;98.89;102174.36;105041;1286;67367;-58
2023/12/15 08:05:30;;;;;;;;;;;;;;;0.81;98.90;102183.06;104961;1285;73748;-58
2023/12/15 08:08:16;;;;;;;;;;;;;;;0.86;98.74;102190.09;105002;1287;61261;-58
2023/12/15 08:11:03;;;;;;;;;;;;;;;0.92;98.70;102195.81;105016;1285;61190;-57
2023/12/15 08:13:49;;;;;;;;;;;;;;;0.98;98.56;102196.77;105026;1287;73725;-58
2023/12/15 08:16:36;;;;;;;;;;;;;;;1.05;98.54;102197.77;104991;1285;70096;-57
2023/12/15 08:19:22;;;;;;;;;;;;;;;1.18;98.52;102218.09;105014;1285;73138;-58
2023/12/15 08:22:08;;;;;;;;;;;;;;;1.27;98.56;102220.77;105064;1285;61184;-59
2023/12/15 08:24:54;;;;;;;;;;;;;;;1.33;98.06;102214.58;105032;1287;61304;-59
2023/12/15 08:27:41;;;;;;;;;;;;;;;1.42;98.13;102218.20;105015;1289;74818;-59
2023/12/15 08:30:27;;;;;;;;;;;;;;;1.49;98.30;102228.23;105090;1285;68403;-59
2023/12/15 08:33:14;;;;;;;;;;;;;;;1.56;98.35;102233.14;105060;1288;71179;-59
2023/12/15 08:36:00;;;;;;;;;;;;;;;1.58;97.76;102242.41;105102;1290;61273;-58
2023/12/15 08:38:46;;;;;;;;;;;;;;;1.65;97.95;102239.31;105083;1285;61237;-59
2023/12/15 08:41:33;;;;;;;;;;;;;;;1.67;97.75;102244.86;105069;1285;76742;-59
2023/12/15 08:44:19;;;;;;;;;;;;;;;1.71;97.42;102252.48;105069;1285;69003;-59
2023/12/15 08:47:05;;;;;;;;;;;;;;;1.78;97.78;102254.73;105049;1285;73041;-59
2023/12/15 08:49:52;;;;;;;;;;;;;;;1.82;96.75;102256.77;105012;1288;61137;-59
2023/12/15 08:52:38;;;;;;;;;;;;;;;1.78;95.50;102257.07;105026;1286;61443;-59
2023/12/15 08:55:24;;;;;;;;;;;;;;;1.72;95.25;102262.79;105075;1286;73268;-59
2023/12/15 08:58:10;;;;;;;;;;;;;;;1.77;95.75;102261.28;105032;1285;70824;-57
2023/12/15 09:01:03;;;;;;;;;;;;;;;1.77;95.95;102262.63;43991;1290;10003073;-60
2023/12/15 09:03:59;;;;;;;;;;;;;;;1.76;96.27;102261.26;106375;1285;68141;-60
2023/12/15 09:06:45;;;;;;;;;;;;;;;1.82;96.42;102265.77;106314;1286;72526;-60
2023/12/15 09:09:31;;;;;;;;;;;;;;;1.90;96.99;102268.70;106362;1285;59370;-60
2023/12/15 09:12:17;;;;;;;;;;;;;;;1.87;94.95;102273.35;106337;1288;58966;-60
2023/12/15 09:15:03;;;;;;;;;;;;;;;1.87;94.76;102271.65;106412;1285;73268;-60
2023/12/15 09:17:49;;;;;;;;;;;;;;;1.91;94.83;102272.00;106478;1285;68558;-60
2023/12/15 09:20:35;;;;;;;;;;;;;;;1.94;95.62;102269.90;106370;1285;71293;-60
2023/12/15 09:23:21;;;;;;;;;;;;;;;1.98;96.28;102274.36;106405;1285;59212;-60
2023/12/15 09:26:07;;;;;;;;;;;;;;;2.07;96.71;102279.32;106400;1285;59536;-60
2023/12/15 09:28:53;;;;;;;;;;;;;;;2.20;97.11;102278.19;106538;1285;74511;-60
2023/12/15 09:31:39;;;;;;;;;;;;;;;2.31;96.95;102275.29;106478;1285;67577;-57
2023/12/15 09:34:25;;;;;;;;;;;;;;;2.33;95.58;102273.67;106452;1285;72228;-60
2023/12/15 09:37:12;;;;;;;;;;;;;;;2.40;96.25;102270.41;106311;1285;59285;-59
2023/12/15 09:39:59;;;;;;;;;;;;;;;2.54;96.89;102266.77;106350;1285;59941;-59
2023/12/15 09:42:44;;;;;;;;;;;;;;;2.62;94.95;102265.89;106375;1288;74533;-59
2023/12/15 09:45:31;;;;;;;;;;;;;;;2.62;93.69;102266.58;106371;1285;68956;-60
2023/12/15 09:48:17;;;;;;;;;;;;;;;2.67;95.24;102267.83;106363;1285;73240;-60
2023/12/15 09:51:07;;;;;;;;;;;;;;;2.86;96.00;102267.61;106377;1286;58978;-60
2023/12/15 09:53:53;;;;;;;;;;;;;;;2.97;94.36;102260.56;106416;1285;59154;-60
2023/12/15 09:56:39;;;;;;;;;;;;;;;3.10;93.70;102261.09;106397;1285;73291;-60
2023/12/15 09:59:25;;;;;;;;;;;;;;;3.20;93.24;102264.06;106365;1285;67363;-59
2023/12/15 10:02:11;;;;;;;;;;;;;;;3.24;93.08;102265.91;106390;1285;71380;-60
2023/12/15 10:04:56;;;;;;;;;;;;;;;3.39;95.04;102266.70;106400;1285;59335;-60
2023/12/15 10:07:44;;;;;;;;;;;;;;;3.52;95.55;102270.63;106368;1285;61230;-60
2023/12/15 10:10:30;;;;;;;;;;;;;;;3.59;95.78;102274.48;106352;1285;73369;-60
2023/12/15 10:13:16;;;;;;;;;;;;;;;3.55;94.21;102277.73;106393;1286;67403;-60
2023/12/15 10:16:02;;;;;;;;;;;;;;;3.42;91.86;102282.65;106318;1287;71401;-60
2023/12/15 10:18:48;;;;;;;;;;;;;;;3.27;92.37;102286.66;106448;1285;59111;-60
2023/12/15 10:21:34;;;;;;;;;;;;;;;3.17;92.83;102291.17;106419;1285;60806;-60
2023/12/15 10:24:21;;;;;;;;;;;;;;;3.11;91.33;102294.88;106440;1285;72409;-59
2023/12/15 10:27:08;;;;;;;;;;;;;;;3.06;90.35;102296.52;106361;1285;69095;-60
2023/12/15 10:29:54;;;;;;;;;;;;;;;3.10;93.16;102298.92;106387;1286;72532;-59
2023/12/15 10:32:40;;;;;;;;;;;;;;;3.26;94.49;102293.44;106446;1285;58407;-58
2023/12/15 10:35:28;;;;;;;;;;;;;;;3.30;91.62;102295.30;106332;1285;59073;-58
2023/12/15 10:38:15;;;;;;;;;;;;;;;3.30;91.52;102299.38;106316;1285;73348;-58
2023/12/15 10:41:01;;;;;;;;;;;;;;;3.30;91.57;102297.36;106382;1285;68566;-59
2023/12/15 10:43:50;;;;;;;;;;;;;;;3.38;91.99;102290.16;106370;1286;71394;-57
2023/12/15 10:46:37;;;;;;;;;;;;;;;3.54;91.89;102297.27;106337;1285;59220;-58
2023/12/15 10:49:23;;;;;;;;;;;;;;;3.53;88.41;102302.36;106408;1286;58895;-57
2023/12/15 10:52:09;;;;;;;;;;;;;;;3.52;91.02;102302.99;106320;1289;74473;-58
2023/12/15 10:54:55;;;;;;;;;;;;;;;3.61;91.54;102305.92;106377;1285;67710;-58
2023/12/15 10:57:41;;;;;;;;;;;;;;;3.61;87.78;102303.03;106343;1286;71794;-59
2023/12/15 11:00:27;;;;;;;;;;;;;;;3.65;87.46;102302.84;106406;1285;58990;-58
2023/12/15 11:03:14;;;;;;;;;;;;;;;3.76;89.88;102303.07;106419;1285;59171;-58
2023/12/15 11:06:00;;;;;;;;;;;;;;;3.77;88.57;102301.57;106365;1288;74177;-58
2023/12/15 11:08:47;;;;;;;;;;;;;;;3.71;86.76;102303.89;102131;1286;5003213;-57
2023/12/15 11:11:33;;;;;;;;;;;;;;;3.67;87.05;102302.23;106390;1285;71923;-58
2023/12/15 11:14:19;;;;;;;;;;;;;;;3.58;86.93;102294.41;106373;1285;59081;-58
2023/12/15 11:17:05;;;;;;;;;;;;;;;3.53;88.08;102284.32;106330;1285;151897;-58
2023/12/15 11:19:56;;;;;;;;;;;;;;;3.55;87.54;102276.69;106448;1285;74324;-58
2023/12/15 11:25:01;;;;;;;;;;;;;;;3.52;86.42;102278.80;20819;1291;20062172;-58
2023/12/15 11:28:18;;;;;;;;;;;;;;;3.55;88.09;102281.14;90905;1290;10074709;-58
2023/12/15 11:31:19;;;;;;;;;;;;;;;3.60;87.39;102285.25;106422;1286;59076;-58
2023/12/15 11:34:05;;;;;;;;;;;;;;;3.65;87.27;102288.31;106460;1285;74474;-58
2023/12/15 11:36:52;;;;;;;;;;;;;;;3.59;84.85;102286.39;105270;1285;67765;-58
2023/12/15 11:39:39;;;;;;;;;;;;;;;3.54;85.36;102274.97;105068;1290;72294;-56
2023/12/15 11:42:25;;;;;;;;;;;;;;;3.51;87.01;102271.43;105131;1286;61203;-57
2023/12/15 11:45:11;;;;;;;;;;;;;;;3.50;85.78;102267.98;105057;1289;61176;-59
2023/12/15 11:47:58;;;;;;;;;;;;;;;3.62;88.70;102275.77;105029;1288;74821;-56
2023/12/15 11:50:45;;;;;;;;;;;;;;;3.71;86.19;102282.75;105080;1285;72254;-57
2023/12/15 11:53:32;;;;;;;;;;;;;;;3.76;86.72;102281.55;105753;1285;311879;-59
2023/12/15 11:56:07;;;;;;;;;;;;;;;3.72;85.80;102276.66;105997;1285;61453;-58
2023/12/15 11:58:51;;;;;;;;;;;;;;;3.71;87.04;102281.23;105030;1288;61182;-58
2023/12/15 12:01:38;;;;;;;;;;;;;;;3.72;88.22;102284.67;105022;1290;73302;-58
2023/12/15 12:04:24;;;;;;;;;;;;;;;3.79;88.61;102288.54;105098;1285;68702;-58
2023/12/15 12:07:11;;;;;;;;;;;;;;;3.78;86.63;102292.23;105047;1286;71480;-58
2023/12/15 12:09:57;;;;;;;;;;;;;;;3.74;88.11;102293.95;106451;1286;59196;-58
2023/12/15 12:12:43;;;;;;;;;;;;;;;3.68;86.04;102296.28;106464;1285;59070;-58
2023/12/15 12:15:29;;;;;;;;;;;;;;;3.60;86.50;102294.30;106389;1288;73615;-59
2023/12/15 12:18:17;;;;;;;;;;;;;;;3.57;86.91;102301.34;106421;1285;68379;-58
2023/12/15 12:21:07;;;;;;;;;;;;;;;3.58;87.64;102297.13;106444;1285;72272;-58
2023/12/15 12:23:53;;;;;;;;;;;;;;;3.58;87.69;102300.38;105258;1288;61043;-58
2023/12/15 12:26:40;;;;;;;;;;;;;;;3.51;85.84;102303.47;105159;1285;62588;-57
2023/12/15 12:29:29;;;;;;;;;;;;;;;3.48;86.26;102307.95;105112;1290;73983;-58
2023/12/15 12:32:15;;;;;;;;;;;;;;;3.47;87.25;102311.17;105078;1285;67291;-57
2023/12/15 12:35:03;;;;;;;;;;;;;;;3.48;85.75;102314.25;105052;1285;71258;-58
2023/12/15 12:37:49;;;;;;;;;;;;;;;3.49;87.83;102318.55;105661;1285;61449;-56
2023/12/15 12:40:35;;;;;;;;;;;;;;;3.48;86.90;102316.30;105064;1285;59128;-57
2023/12/15 12:43:22;;;;;;;;;;;;;;;3.43;85.64;102323.27;105138;1290;73183;-56
2023/12/15 12:46:10;;;;;;;;;;;;;;;3.48;87.26;102325.36;105105;1286;73012;-56
2023/12/15 12:48:56;;;;;;;;;;;;;;;3.48;85.93;102329.60;105115;1285;71232;-56
2023/12/15 12:51:42;;;;;;;;;;;;;;;3.51;86.82;102335.52;105080;1285;62153;-57
2023/12/15 12:54:29;;;;;;;;;;;;;;;3.52;86.30;102335.93;105049;1286;61177;-57
2023/12/15 12:57:15;;;;;;;;;;;;;;;3.50;86.08;102335.65;104985;1286;75969;-57
2023/12/15 13:00:06;;;;;;;;;;;;;;;3.53;86.98;102331.85;105042;1285;67188;-57
2023/12/15 13:02:52;;;;;;;;;;;;;;;3.51;85.95;102330.92;106367;1286;71339;-57
2023/12/15 13:05:38;;;;;;;;;;;;;;;3.54;86.79;102330.02;106411;1286;58344;-57
2023/12/15 13:08:24;;;;;;;;;;;;;;;3.56;86.05;102328.59;106426;1285;59948;-58
2023/12/15 13:11:10;;;;;;;;;;;;;;;3.60;87.15;102326.35;106489;1285;73348;-58
2023/12/15 13:13:56;;;;;;;;;;;;;;;3.63;87.56;102328.69;106079;1286;67400;-57
2023/12/15 13:16:45;;;;;;;;;;;;;;;3.63;87.14;102331.77;105028;1285;71183;-57
2023/12/15 13:19:32;;;;;;;;;;;;;;;3.62;86.99;102334.10;105143;1286;61323;-58
2023/12/15 13:22:18;;;;;;;;;;;;;;;3.61;88.07;102342.92;105103;1286;61173;-58
2023/12/15 13:25:08;;;;;;;;;;;;;;;3.60;87.12;102343.59;105054;1286;76480;-57
2023/12/15 13:27:54;;;;;;;;;;;;;;;3.59;87.44;102344.19;105096;1285;67087;-58
2023/12/15 13:30:43;;;;;;;;;;;;;;;3.57;87.34;102344.81;105117;1286;72211;-57
2023/12/15 13:33:29;;;;;;;;;;;;;;;3.53;86.57;102345.67;105064;1285;61148;-55
2023/12/15 13:36:16;;;;;;;;;;;;;;;3.52;87.74;102345.81;105163;1291;61131;-57
2023/12/15 13:39:03;;;;;;;;;;;;;;;3.51;87.83;102347.95;105454;1285;74661;-57
2023/12/15 13:41:50;;;;;;;;;;;;;;;3.46;87.29;102345.55;105148;1290;67773;-57
2023/12/15 13:44:37;;;;;;;;;;;;;;;3.44;87.69;102348.71;105109;1286;70926;-57
2023/12/15 13:47:24;;;;;;;;;;;;;;;3.43;88.31;102351.38;105134;1288;61370;-56
2023/12/15 13:50:12;;;;;;;;;;;;;;;3.39;88.32;102357.37;55501;1285;10002720;-56
2023/12/15 13:53:18;;;;;;;;;;;;;;;3.37;88.31;102358.80;97990;1285;10076157;-57
2023/12/15 13:56:05;;;;;;;;;;;;;;;3.33;88.38;102362.91;105031;1290;74909;-56
2023/12/15 13:58:51;;;;;;;;;;;;;;;3.31;88.64;102365.37;106511;1285;67397;-57
2023/12/15 14:01:37;;;;;;;;;;;;;;;3.28;88.58;102366.30;106402;1285;72158;-58
2023/12/15 14:04:23;;;;;;;;;;;;;;;3.24;88.13;102366.95;106465;1285;59123;-58
2023/12/15 14:07:09;;;;;;;;;;;;;;;3.21;88.59;102360.73;106413;1286;59461;-58
2023/12/15 14:09:55;;;;;;;;;;;;;;;3.20;88.54;102361.33;105599;1285;74464;-58
2023/12/15 14:12:41;;;;;;;;;;;;;;;3.20;88.83;102362.55;105037;1288;67111;-57
2023/12/15 14:15:27;;;;;;;;;;;;;;;3.20;88.84;102354.20;105061;1286;73646;-57